Time;durP1;ratioP1;P1;durP2;ratioP2;P2;SDS_P1;SDS_P2;PMS_P1;PMS_P2;Temp;Humidity;BMP_temperature;BMP_pressure;BME280_temperature;BME280_humidity;BME280_pressure;Samples;Min_cycle;Max_cycle;Signal;HPM_P1;HPM_P2
2021/07/03 00:00:57;;;;;;;18.20;8.35;;;13.50;99.90;;;;;;6307126;22;20098;-79
2021/07/03 00:03:23;;;;;;;12.80;7.63;;;13.60;99.90;;;;;;6307258;22;20018;-79
2021/07/03 00:05:49;;;;;;;16.40;8.25;;;13.50;99.90;;;;;;6312742;22;20106;-79
2021/07/03 00:08:15;;;;;;;17.90;8.00;;;13.50;99.90;;;;;;6333531;22;20011;-79
2021/07/03 00:10:41;;;;;;;16.85;8.68;;;13.50;99.90;;;;;;6307083;22;20071;-79
2021/07/03 00:13:07;;;;;;;14.80;9.05;;;13.50;99.90;;;;;;6319977;22;20007;-79
2021/07/03 00:15:33;;;;;;;17.58;9.88;;;13.50;99.90;;;;;;6309458;22;20446;-79
2021/07/03 00:17:59;;;;;;;18.60;9.75;;;13.40;99.90;;;;;;6348588;22;20082;-79
2021/07/03 00:20:26;;;;;;;14.27;9.25;;;13.50;99.90;;;;;;6335667;22;20007;-79
2021/07/03 00:22:52;;;;;;;12.68;9.63;;;13.40;99.90;;;;;;6346769;22;20501;-79
2021/07/03 00:25:19;;;;;;;14.68;8.77;;;13.50;99.90;;;;;;6312983;22;20006;-78
2021/07/03 00:27:45;;;;;;;12.35;7.70;;;13.50;99.90;;;;;;6320744;22;20010;-79
2021/07/03 00:30:12;;;;;;;9.88;7.32;;;13.50;99.90;;;;;;6337484;22;20017;-79
2021/07/03 00:32:38;;;;;;;13.45;7.07;;;13.40;99.90;;;;;;6337489;22;20405;-79
2021/07/03 00:35:10;;;;;;;13.27;6.60;;;13.30;99.90;;;;;;6337423;22;20045;-78
2021/07/03 00:37:36;;;;;;;8.98;6.43;;;13.30;99.90;;;;;;6346526;22;20014;-79
2021/07/03 00:40:04;;;;;;;7.82;6.20;;;13.30;99.90;;;;;;6346631;22;20018;-79
2021/07/03 00:42:29;;;;;;;7.93;5.55;;;13.30;99.90;;;;;;6348200;22;20010;-79
2021/07/03 00:44:55;;;;;;;7.60;5.95;;;13.20;99.90;;;;;;6348648;22;20040;-79
2021/07/03 00:47:21;;;;;;;7.60;6.03;;;13.20;99.90;;;;;;6308582;22;20438;-79
2021/07/03 00:49:46;;;;;;;12.45;5.60;;;13.10;99.90;;;;;;6309442;22;20064;-79
2021/07/03 00:52:13;;;;;;;5.63;4.57;;;13.10;99.90;;;;;;6318635;22;20007;-78
2021/07/03 00:54:40;;;;;;;7.60;5.43;;;13.10;99.90;;;;;;6321071;22;20093;-79
2021/07/03 00:57:08;;;;;;;6.43;4.95;;;13.00;99.90;;;;;;6320091;22;20039;-79
2021/07/03 00:59:34;;;;;;;5.95;4.50;;;13.00;99.90;;;;;;6310733;22;20015;-79
2021/07/03 01:02:01;;;;;;;5.32;4.60;;;12.90;99.90;;;;;;6338679;22;20029;-79
2021/07/03 01:04:28;;;;;;;5.70;4.57;;;12.90;99.90;;;;;;6339558;22;20019;-79
2021/07/03 01:06:54;;;;;;;9.73;5.80;;;12.90;99.90;;;;;;6322247;22;20060;-79
2021/07/03 01:09:19;;;;;;;9.65;5.25;;;12.90;99.90;;;;;;6350128;22;20007;-78
2021/07/03 01:11:45;;;;;;;9.27;5.63;;;12.80;99.90;;;;;;6349990;22;20067;-78
2021/07/03 01:14:11;;;;;;;7.03;5.38;;;12.80;99.90;;;;;;6349715;22;20374;-78
2021/07/03 01:16:36;;;;;;;7.85;5.32;;;12.80;99.90;;;;;;6348042;22;20014;-78
2021/07/03 01:19:02;;;;;;;5.18;4.25;;;12.80;99.90;;;;;;6320719;22;20458;-79
2021/07/03 01:21:29;;;;;;;5.00;4.00;;;12.80;99.90;;;;;;6309950;22;20015;-79
2021/07/03 01:23:55;;;;;;;5.13;3.88;;;12.80;99.90;;;;;;6317901;22;20101;-79
2021/07/03 01:26:21;;;;;;;5.13;3.78;;;12.80;99.90;;;;;;6347984;22;20007;-78
2021/07/03 01:28:47;;;;;;;7.55;3.60;;;12.70;99.90;;;;;;6347019;22;20505;-79
2021/07/03 01:31:14;;;;;;;4.10;3.70;;;12.70;99.90;;;;;;6311511;22;20049;-78
2021/07/03 01:33:40;;;;;;;9.43;3.85;;;12.60;99.90;;;;;;6319813;22;20015;-79
2021/07/03 01:36:06;;;;;;;4.30;3.80;;;12.60;99.90;;;;;;6340288;22;20064;-79
2021/07/03 01:38:32;;;;;;;4.97;3.33;;;12.60;99.90;;;;;;6346836;22;20010;-79
2021/07/03 01:40:58;;;;;;;6.93;4.18;;;12.60;99.90;;;;;;6337095;22;20018;-78
2021/07/03 01:43:28;;;;;;;4.18;3.30;;;12.50;99.90;;;;;;6347433;22;20335;-78
2021/07/03 01:45:56;;;;;;;4.18;3.38;;;12.60;99.90;;;;;;6319698;22;20030;-78
2021/07/03 01:48:28;;;;;;;5.47;3.30;;;12.50;99.90;;;;;;6309873;22;20064;-79
2021/07/03 01:50:56;;;;;;;6.85;3.45;;;12.50;99.90;;;;;;6336937;22;20007;-79
2021/07/03 01:53:22;;;;;;;4.90;3.88;;;12.40;99.90;;;;;;6336732;22;20334;-79
2021/07/03 01:55:49;;;;;;;5.85;3.47;;;12.40;99.90;;;;;;6309157;22;20094;-79
2021/07/03 01:58:21;;;;;;;6.03;3.95;;;12.40;99.90;;;;;;6293895;22;20018;-78
2021/07/03 02:00:51;;;;;;;5.97;3.95;;;12.30;99.90;;;;;;6346877;22;20011;-78
2021/07/03 02:03:18;;;;;;;3.95;3.38;;;12.30;99.90;;;;;;6309565;22;20014;-79
2021/07/03 02:05:45;;;;;;;4.53;3.72;;;12.30;99.90;;;;;;6311954;22;20388;-79
2021/07/03 02:08:11;;;;;;;5.53;4.15;;;12.30;99.90;;;;;;6321207;22;20010;-79
2021/07/03 02:10:37;;;;;;;9.23;4.32;;;12.30;99.90;;;;;;6310552;22;20079;-79
2021/07/03 02:13:03;;;;;;;5.53;4.30;;;12.20;99.90;;;;;;6348151;22;20467;-78
2021/07/03 02:15:31;;;;;;;9.63;3.92;;;12.10;99.90;;;;;;6322016;22;20063;-79
2021/07/03 02:17:57;;;;;;;4.90;3.90;;;12.20;99.90;;;;;;6339369;22;20010;-79
2021/07/03 02:20:23;;;;;;;6.50;4.30;;;12.20;99.90;;;;;;6317984;22;20086;-79
2021/07/03 02:22:49;;;;;;;8.73;4.00;;;12.10;99.90;;;;;;6347660;22;20068;-79
2021/07/03 02:25:15;;;;;;;7.53;4.18;;;12.10;99.90;;;;;;6309254;22;20465;-78
2021/07/03 02:27:41;;;;;;;5.32;4.25;;;12.10;99.90;;;;;;6310011;22;20010;-78
2021/07/03 02:30:11;;;;;;;5.72;4.20;;;12.10;99.90;;;;;;6348272;22;20007;-79
2021/07/03 02:32:37;;;;;;;4.65;4.03;;;12.10;99.90;;;;;;6347695;22;20303;-78
2021/07/03 02:35:04;;;;;;;8.50;4.30;;;12.10;99.90;;;;;;6345042;22;20023;-78
2021/07/03 02:37:30;;;;;;;9.18;4.50;;;12.00;99.90;;;;;;6347714;22;20086;-78
2021/07/03 02:39:56;;;;;;;5.20;4.50;;;12.00;99.90;;;;;;6348248;22;20039;-79
2021/07/03 02:42:22;;;;;;;9.00;4.78;;;11.90;99.90;;;;;;6336857;22;20064;-79
2021/07/03 02:44:47;;;;;;;9.93;4.50;;;11.90;99.90;;;;;;6348003;22;20017;-78
2021/07/03 02:47:13;;;;;;;7.68;4.10;;;11.90;99.90;;;;;;6337796;22;20021;-79
2021/07/03 02:49:39;;;;;;;4.72;3.80;;;12.00;99.90;;;;;;6347855;22;20010;-78
2021/07/03 02:52:05;;;;;;;6.38;4.50;;;11.90;99.90;;;;;;6336866;22;20007;-79
2021/07/03 02:54:31;;;;;;;7.70;4.10;;;11.90;99.90;;;;;;6347960;22;20017;-78
2021/07/03 02:56:59;;;;;;;5.88;4.13;;;11.90;99.90;;;;;;6309839;22;20014;-79
2021/07/03 02:59:27;;;;;;;5.78;3.83;;;11.90;99.90;;;;;;6348050;22;20078;-79
2021/07/03 03:01:52;;;;;;;4.40;3.88;;;11.80;99.90;;;;;;6309950;22;20011;-78
2021/07/03 03:04:20;;;;;;;11.63;4.80;;;11.80;99.90;;;;;;6313043;22;20010;-78
2021/07/03 03:06:46;;;;;;;10.57;4.63;;;11.80;99.90;;;;;;6310961;22;20014;-78
2021/07/03 03:09:13;;;;;;;6.22;4.40;;;11.80;99.90;;;;;;6347178;22;20007;-79
2021/07/03 03:11:38;;;;;;;8.30;5.47;;;11.70;99.90;;;;;;6319572;22;20094;-77
2021/07/03 03:14:04;;;;;;;7.43;5.55;;;11.80;99.90;;;;;;6347117;22;20039;-78
2021/07/03 03:16:30;;;;;;;6.50;4.95;;;11.80;99.90;;;;;;6309556;22;20497;-78
2021/07/03 03:18:56;;;;;;;6.35;4.63;;;11.70;99.90;;;;;;6308985;22;20015;-78
2021/07/03 03:21:22;;;;;;;5.57;4.43;;;11.70;99.90;;;;;;6313312;22;20010;-78
2021/07/03 03:23:48;;;;;;;7.55;5.15;;;11.70;99.90;;;;;;6318482;22;20113;-78
2021/07/03 03:26:14;;;;;;;8.13;4.80;;;11.70;99.90;;;;;;6320356;22;20014;-78
2021/07/03 03:28:40;;;;;;;4.95;4.25;;;11.70;99.90;;;;;;6337687;22;20045;-79
2021/07/03 03:31:06;;;;;;;5.55;4.15;;;11.70;99.90;;;;;;6347577;22;20011;-79
2021/07/03 03:33:32;;;;;;;9.75;4.60;;;11.80;99.90;;;;;;6347188;22;20022;-78
2021/07/03 03:35:57;;;;;;;9.05;3.88;;;11.80;99.90;;;;;;6309015;22;20046;-78
2021/07/03 03:38:24;;;;;;;4.55;3.55;;;11.80;99.90;;;;;;6309628;22;20018;-78
2021/07/03 03:40:50;;;;;;;4.35;3.60;;;11.80;99.90;;;;;;6309353;22;20011;-78
2021/07/03 03:43:16;;;;;;;6.63;3.13;;;11.80;99.90;;;;;;6309458;22;20332;-79
2021/07/03 03:45:41;;;;;;;6.13;3.50;;;11.80;99.90;;;;;;6348679;22;20011;-78
2021/07/03 03:48:07;;;;;;;6.82;3.50;;;11.80;99.90;;;;;;6339748;22;20384;-79
2021/07/03 03:50:34;;;;;;;3.47;3.17;;;11.90;99.90;;;;;;6338948;22;20011;-79
2021/07/03 03:53:00;;;;;;;8.43;3.30;;;11.90;99.90;;;;;;6321462;22;20483;-78
2021/07/03 03:55:27;;;;;;;6.13;3.70;;;11.90;99.90;;;;;;6339274;22;20011;-78
2021/07/03 03:57:53;;;;;;;17.30;3.58;;;11.90;99.90;;;;;;6321730;22;20021;-78
2021/07/03 04:00:20;;;;;;;5.35;3.00;;;11.90;99.90;;;;;;6349967;22;20038;-79
2021/07/03 04:02:47;;;;;;;7.20;3.20;;;12.00;99.90;;;;;;6311529;22;20080;-78
2021/07/03 04:05:14;;;;;;;6.38;3.60;;;12.00;99.90;;;;;;6347715;22;20030;-79
2021/07/03 04:07:41;;;;;;;6.57;3.60;;;12.00;99.90;;;;;;6349215;22;20355;-79
2021/07/03 04:10:09;;;;;;;4.85;3.38;;;12.10;99.90;;;;;;6349733;22;20450;-80
2021/07/03 04:12:36;;;;;;;10.13;3.50;;;12.10;99.90;;;;;;6321728;22;20007;-79
2021/07/03 04:15:03;;;;;;;5.20;3.97;;;12.20;99.90;;;;;;6349224;22;20089;-79
2021/07/03 04:17:29;;;;;;;6.82;4.00;;;12.30;99.90;;;;;;6349454;22;20430;-79
2021/07/03 04:19:55;;;;;;;11.95;3.78;;;12.30;99.90;;;;;;6321261;22;20007;-79
2021/07/03 04:22:21;;;;;;;3.90;3.40;;;12.40;99.90;;;;;;6348904;22;20025;-79
2021/07/03 04:24:47;;;;;;;9.77;3.35;;;12.60;99.90;;;;;;6338964;22;20371;-79
2021/07/03 04:27:13;;;;;;;8.65;4.07;;;12.70;99.90;;;;;;6348811;22;20439;-79
2021/07/03 04:29:39;;;;;;;6.75;3.80;;;12.80;99.90;;;;;;6349666;22;20007;-79
2021/07/03 04:32:05;;;;;;;8.25;3.33;;;13.00;99.90;;;;;;6338249;22;20014;-79
2021/07/03 04:34:31;;;;;;;5.45;3.92;;;13.50;99.90;;;;;;6311298;22;20011;-79
2021/07/03 04:36:58;;;;;;;6.55;4.30;;;13.90;99.90;;;;;;6311089;22;20018;-80
2021/07/03 04:39:25;;;;;;;12.60;4.15;;;14.80;99.90;;;;;;6321406;22;20085;-79
2021/07/03 04:41:51;;;;;;;14.57;4.40;;;15.70;99.90;;;;;;6321677;22;20007;-79
2021/07/03 04:44:17;;;;;;;9.32;4.38;;;16.40;99.90;;;;;;6349330;22;20018;-80
2021/07/03 04:46:44;;;;;;;9.70;4.22;;;16.90;99.90;;;;;;6349359;22;20339;-80
2021/07/03 04:49:10;;;;;;;7.80;3.80;;;17.50;99.90;;;;;;6349332;22;20014;-80
2021/07/03 04:51:36;;;;;;;8.98;4.55;;;18.00;99.90;;;;;;6313310;22;20063;-80
2021/07/03 04:54:03;;;;;;;10.10;5.05;;;18.40;99.90;;;;;;6284459;22;20343;-79
2021/07/03 04:56:29;;;;;;;6.25;4.68;;;18.50;99.90;;;;;;6338602;22;20011;-79
2021/07/03 04:58:56;;;;;;;10.70;5.78;;;18.90;99.90;;;;;;6348833;22;20021;-80
2021/07/03 05:01:22;;;;;;;11.80;6.50;;;19.00;99.90;;;;;;6349048;22;20011;-79
2021/07/03 05:03:47;;;;;;;9.18;7.18;;;18.70;99.90;;;;;;6316976;22;20032;-79
2021/07/03 05:06:13;;;;;;;15.35;8.68;;;17.80;99.90;;;;;;6314885;22;20040;-79
2021/07/03 05:08:40;;;;;;;10.75;7.70;;;17.30;99.90;;;;;;6320264;22;20018;-80
2021/07/03 05:11:06;;;;;;;16.35;10.55;;;17.00;99.90;;;;;;6321108;22;20437;-80
2021/07/03 05:13:31;;;;;;;17.65;11.93;;;16.50;99.90;;;;;;6347865;22;20076;-80
2021/07/03 05:15:57;;;;;;;21.83;12.27;;;16.20;99.90;;;;;;6320836;22;20007;-80
2021/07/03 05:18:23;;;;;;;17.83;11.35;;;16.00;99.90;;;;;;6309963;22;20454;-80
2021/07/03 05:20:49;;;;;;;18.20;11.73;;;15.90;99.90;;;;;;6310171;22;20113;-80
2021/07/03 05:23:15;;;;;;;19.25;12.27;;;15.90;99.90;;;;;;6320006;22;20311;-80
2021/07/03 05:25:42;;;;;;;17.33;12.50;;;15.80;99.90;;;;;;6311426;22;20022;-80
2021/07/03 05:28:09;;;;;;;20.08;13.32;;;15.80;99.90;;;;;;6310088;22;20007;-80
2021/07/03 05:30:35;;;;;;;20.55;13.48;;;15.90;99.90;;;;;;6310443;22;20019;-80
2021/07/03 05:33:03;;;;;;;18.38;12.70;;;15.90;99.90;;;;;;6347614;22;20089;-80
2021/07/03 05:35:29;;;;;;;19.67;13.00;;;15.90;99.90;;;;;;6309677;22;20593;-80
2021/07/03 05:37:55;;;;;;;19.85;13.45;;;16.00;99.90;;;;;;6319999;22;20007;-80
2021/07/03 05:40:20;;;;;;;24.00;13.27;;;16.10;99.90;;;;;;6337576;22;20007;-79
2021/07/03 05:42:46;;;;;;;20.30;13.73;;;16.20;99.90;;;;;;6348206;22;20057;-80
2021/07/03 05:45:14;;;;;;;20.00;13.20;;;16.30;99.90;;;;;;6309701;22;20007;-80
2021/07/03 05:47:53;;;;;;;21.33;12.73;;;16.40;99.90;;;;;;6347728;22;20011;-80
2021/07/03 05:50:23;;;;;;;24.70;13.75;;;16.30;99.90;;;;;;6345490;22;20015;-77
2021/07/03 05:52:50;;;;;;;20.92;13.55;;;16.40;99.90;;;;;;6347361;22;20018;-79
2021/07/03 05:55:18;;;;;;;22.20;12.90;;;16.40;99.90;;;;;;6320488;22;20038;-80
2021/07/03 05:57:44;;;;;;;16.08;9.90;;;16.40;99.90;;;;;;6348030;22;20011;-80
2021/07/03 06:00:12;;;;;;;22.05;9.60;;;16.50;99.90;;;;;;6309050;22;20022;-80
2021/07/03 06:02:38;;;;;;;15.63;8.80;;;16.60;99.90;;;;;;6284408;22;20018;-79
2021/07/03 06:05:05;;;;;;;15.35;8.50;;;16.70;99.90;;;;;;6310183;22;20015;-80
2021/07/03 06:07:32;;;;;;;12.50;5.00;;;16.80;99.90;;;;;;6320555;22;20492;-77
2021/07/03 06:09:58;;;;;;;12.68;6.63;;;17.00;99.90;;;;;;6321151;22;20045;-82
2021/07/03 06:12:24;;;;;;;15.32;6.82;;;17.10;99.90;;;;;;6338110;22;20015;-76
2021/07/03 06:14:50;;;;;;;14.02;6.53;;;17.10;99.90;;;;;;6348647;22;20010;-77
2021/07/03 06:17:16;;;;;;;13.00;6.80;;;17.10;99.90;;;;;;6348023;22;20006;-77
2021/07/03 06:19:43;;;;;;;14.00;6.97;;;17.20;99.90;;;;;;6348639;22;20029;-78
2021/07/03 06:22:10;;;;;;;10.10;5.32;;;17.30;99.90;;;;;;6309256;22;20328;-77
2021/07/03 06:24:36;;;;;;;9.23;5.40;;;17.30;99.90;;;;;;6309913;22;20037;-77
2021/07/03 06:27:02;;;;;;;9.07;4.70;;;17.30;99.90;;;;;;6347759;22;20026;-77
2021/07/03 06:29:28;;;;;;;7.88;4.35;;;17.40;99.90;;;;;;6310847;22;20093;-77
2021/07/03 06:31:55;;;;;;;12.15;4.80;;;17.40;99.90;;;;;;6310214;22;20034;-77
2021/07/03 06:34:20;;;;;;;11.98;4.75;;;17.50;99.90;;;;;;6337894;22;20431;-77
2021/07/03 06:36:46;;;;;;;8.35;4.53;;;17.60;99.90;;;;;;6312796;22;20090;-77
2021/07/03 06:39:12;;;;;;;12.32;5.40;;;17.60;99.90;;;;;;6347419;22;20357;-77
2021/07/03 06:41:37;;;;;;;12.18;5.50;;;17.80;99.90;;;;;;6347865;22;20022;-77
2021/07/03 06:44:04;;;;;;;12.05;5.10;;;17.90;99.90;;;;;;6337990;22;20015;-77
2021/07/03 06:46:30;;;;;;;16.98;5.78;;;17.90;99.90;;;;;;6348441;22;20555;-77
2021/07/03 06:48:56;;;;;;;9.60;4.85;;;18.10;99.90;;;;;;6325926;22;20013;-77
2021/07/03 06:51:22;;;;;;;11.30;4.80;;;18.20;99.90;;;;;;6364450;22;20002;-77
2021/07/03 06:53:48;;;;;;;10.27;4.38;;;18.40;99.90;;;;;;6330190;22;20091;-78
2021/07/03 06:56:13;;;;;;;10.13;4.18;;;18.60;99.90;;;;;;6328230;22;20448;-76
2021/07/03 06:58:39;;;;;;;13.55;4.95;;;18.70;99.90;;;;;;6369673;22;20011;-77
2021/07/03 07:01:05;;;;;;;9.18;4.20;;;18.70;99.90;;;;;;6359510;22;20268;-75
2021/07/03 07:03:30;;;;;;;8.23;3.97;;;18.80;99.90;;;;;;6325026;22;20439;-77
2021/07/03 07:05:56;;;;;;;9.30;3.90;;;18.90;99.90;;;;;;6337683;22;20007;-76
2021/07/03 07:08:22;;;;;;;11.60;5.00;;;18.90;99.90;;;;;;6347720;22;20018;-76
2021/07/03 07:10:51;;;;;;;9.85;4.78;;;19.00;99.90;;;;;;6347730;22;20014;-77
2021/07/03 07:13:17;;;;;;;10.60;4.82;;;19.00;99.90;;;;;;6347758;22;20041;-76
2021/07/03 07:15:43;;;;;;;12.75;5.32;;;19.10;99.90;;;;;;6319842;22;20038;-78
2021/07/03 07:18:09;;;;;;;13.98;6.03;;;19.20;99.90;;;;;;6347713;22;20308;-77
2021/07/03 07:20:34;;;;;;;11.40;5.60;;;19.40;99.90;;;;;;6345400;22;20449;-77
2021/07/03 07:23:00;;;;;;;14.82;5.75;;;19.50;99.90;;;;;;6347116;22;20018;-78
2021/07/03 07:25:26;;;;;;;10.93;4.95;;;19.60;99.90;;;;;;6340351;22;20091;-77
2021/07/03 07:27:52;;;;;;;10.73;4.90;;;19.60;99.90;;;;;;6347894;22;20010;-78
2021/07/03 07:30:19;;;;;;;12.68;5.35;;;19.60;99.90;;;;;;6347663;22;20498;-78
2021/07/03 07:32:46;;;;;;;11.63;5.60;;;19.60;99.90;;;;;;6347451;22;20457;-78
2021/07/03 07:35:13;;;;;;;8.52;4.90;;;19.80;99.90;;;;;;6337048;22;20086;-79
2021/07/03 07:37:39;;;;;;;10.13;5.15;;;19.70;99.90;;;;;;6346239;22;20011;-78
2021/07/03 07:40:05;;;;;;;11.63;4.95;;;19.70;99.90;;;;;;6257584;22;20380;-81
2021/07/03 07:42:31;;;;;;;21.38;5.35;;;19.50;99.90;;;;;;6347338;22;20042;-80
2021/07/03 07:44:57;;;;;;;11.63;4.85;;;19.70;99.90;;;;;;6308805;22;20065;-79
2021/07/03 07:47:23;;;;;;;6.00;3.20;;;19.80;99.90;;;;;;6308830;22;20351;-80
2021/07/03 07:49:49;;;;;;;11.07;4.72;;;20.00;99.90;;;;;;6319730;22;20006;-81
2021/07/03 07:52:15;;;;;;;10.02;3.70;;;20.00;99.90;;;;;;6309527;22;20498;-81
2021/07/03 07:54:41;;;;;;;11.10;4.40;;;20.10;99.90;;;;;;6309233;22;20022;-82
2021/07/03 07:57:07;;;;;;;12.10;4.57;;;20.20;99.90;;;;;;6347287;22;20066;-81
2021/07/03 07:59:32;;;;;;;13.23;4.97;;;20.10;99.90;;;;;;6337304;22;20006;-81
2021/07/03 08:01:58;;;;;;;10.75;4.28;;;20.10;99.90;;;;;;6308991;22;20015;-80
2021/07/03 08:04:24;;;;;;;12.30;4.65;;;20.10;99.90;;;;;;6308746;22;20105;-81
2021/07/03 08:06:50;;;;;;;9.98;4.88;;;20.10;99.90;;;;;;6337724;22;20007;-80
2021/07/03 08:09:16;;;;;;;12.73;5.15;;;19.90;99.90;;;;;;6309586;22;20410;-81
2021/07/03 08:11:43;;;;;;;12.18;5.53;;;20.00;99.90;;;;;;6309939;22;20019;-84
2021/07/03 08:14:12;;;;;;;11.07;5.25;;;20.10;99.90;;;;;;6347488;22;20049;-83
2021/07/03 08:16:38;;;;;;;11.93;5.57;;;20.00;99.90;;;;;;6347982;22;20010;-82
2021/07/03 08:19:04;;;;;;;12.48;5.55;;;20.00;99.90;;;;;;6347994;22;20022;-84
2021/07/03 08:21:29;;;;;;;9.48;6.05;;;20.00;99.90;;;;;;6342566;22;20060;-83
2021/07/03 08:23:55;;;;;;;15.23;5.85;;;20.10;99.90;;;;;;6309256;22;20022;-83
2021/07/03 08:26:21;;;;;;;11.90;5.60;;;20.10;99.90;;;;;;6310199;22;20023;-84
2021/07/03 08:28:47;;;;;;;12.52;6.53;;;20.10;99.90;;;;;;6320359;22;20013;-83
2021/07/03 08:31:13;;;;;;;14.38;6.85;;;20.10;99.90;;;;;;6320350;22;20441;-83
2021/07/03 08:33:38;;;;;;;16.98;7.32;;;20.20;99.90;;;;;;6321790;22;20457;-83
2021/07/03 08:36:04;;;;;;;13.70;8.00;;;20.30;99.90;;;;;;6311268;22;20015;-83
2021/07/03 08:38:32;;;;;;;13.20;8.50;;;20.30;99.90;;;;;;6311118;22;20007;-84
2021/07/03 08:40:58;;;;;;;14.35;8.23;;;20.30;99.90;;;;;;6312070;22;20041;-83
2021/07/03 08:43:25;;;;;;;15.48;8.55;;;20.40;99.90;;;;;;6310677;22;20103;-82
2021/07/03 08:45:58;;;;;;;17.25;9.45;;;20.40;99.90;;;;;;6321962;22;20010;-83
2021/07/03 08:48:25;;;;;;;21.50;9.05;;;20.50;99.90;;;;;;6338681;22;20015;-85
2021/07/03 08:50:57;;;;;;;17.02;8.77;;;20.60;99.90;;;;;;6319518;22;20382;-84
2021/07/03 08:53:23;;;;;;;15.88;8.30;;;20.60;99.90;;;;;;6310112;22;20374;-81
2021/07/03 08:55:49;;;;;;;14.90;7.88;;;20.70;99.90;;;;;;6311561;22;20014;-82
2021/07/03 08:58:16;;;;;;;13.85;7.43;;;20.80;99.90;;;;;;6310923;22;20006;-83
2021/07/03 09:00:43;;;;;;;17.20;8.48;;;20.90;99.90;;;;;;6349380;22;20429;-84
2021/07/03 09:03:13;;;;;;;11.73;8.30;;;21.10;99.90;;;;;;6284687;22;20089;-78
2021/07/03 09:05:41;;;;;;;12.77;7.47;;;21.20;99.90;;;;;;6311289;22;20038;-81
2021/07/03 09:08:10;;;;;;;14.25;7.13;;;21.30;99.90;;;;;;6310838;22;20170;-80
2021/07/03 09:10:38;;;;;;;14.77;6.63;;;21.20;99.90;;;;;;6285818;22;20034;-81
2021/07/03 09:13:06;;;;;;;13.48;7.10;;;21.20;99.90;;;;;;6285673;22;20023;-85
2021/07/03 09:15:35;;;;;;;12.88;6.75;;;21.10;99.90;;;;;;6310605;22;20014;-82
2021/07/03 09:18:04;;;;;;;11.25;7.03;;;21.50;99.90;;;;;;6309894;22;20071;-82
2021/07/03 09:20:39;;;;;;;13.85;7.00;;;21.60;99.90;;;;;;6310365;22;20091;-83
2021/07/03 09:23:08;;;;;;;10.48;6.80;;;21.60;99.90;;;;;;6284323;22;20378;-81
2021/07/03 09:25:54;;;;;;;10.50;7.05;;;21.80;99.90;;;;;;6313143;22;20022;-81
2021/07/03 09:28:29;;;;;;;9.98;7.00;;;21.80;99.90;;;;;;6321598;22;20017;-81
2021/07/03 09:31:00;;;;;;;11.30;6.35;;;21.90;99.90;;;;;;6321786;22;20011;-81
2021/07/03 09:33:34;;;;;;;12.10;6.13;;;22.10;99.90;;;;;;6338141;22;20018;-81
2021/07/03 09:36:07;;;;;;;8.80;6.45;;;22.10;99.90;;;;;;6310721;22;20377;-80
2021/07/03 09:38:39;;;;;;;10.65;6.57;;;22.00;99.90;;;;;;6348393;22;20118;-81
2021/07/03 09:41:37;;;;;;;10.65;6.30;;;21.70;99.90;;;;;;6285039;22;20031;-81
2021/07/03 09:44:09;;;;;;;15.65;6.32;;;21.80;99.90;;;;;;6157344;23;20315;-82
2021/07/03 09:46:45;;;;;;;10.65;5.88;;;21.90;99.90;;;;;;6156904;23;20021;-82
2021/07/03 09:49:25;;;;;;;8.88;5.00;;;22.10;99.90;;;;;;6160870;23;20017;-82
2021/07/03 09:51:59;;;;;;;8.82;5.22;;;22.40;99.90;;;;;;6158315;23;20020;-83
2021/07/03 09:54:28;;;;;;;9.63;5.00;;;22.40;99.90;;;;;;6132192;23;20017;-82
2021/07/03 09:57:00;;;;;;;8.27;4.93;;;22.50;99.90;;;;;;6158316;23;20017;-82
2021/07/03 09:59:34;;;;;;;10.00;5.00;;;22.50;99.90;;;;;;6158018;23;20013;-81
2021/07/03 10:02:01;;;;;;;7.53;4.75;;;22.90;99.90;;;;;;6132704;23;20009;-81
2021/07/03 10:04:27;;;;;;;7.95;4.93;;;23.20;99.90;;;;;;6132714;23;20013;-81
2021/07/03 10:07:24;;;;;;;9.18;4.82;;;23.30;99.90;;;;;;6132575;23;20047;-85
2021/07/03 10:10:03;;;;;;;9.35;5.10;;;23.50;99.90;;;;;;6065925;23;20031;-84
2021/07/03 10:12:32;;;;;;;6.80;4.30;;;23.70;99.90;;;;;;6040620;23;20101;-80
2021/07/03 10:14:58;;;;;;;6.15;3.63;;;23.80;99.90;;;;;;6066046;23;20098;-83
2021/07/03 10:17:26;;;;;;;7.53;4.38;;;23.90;99.90;;;;;;6041367;23;20026;-81
2021/07/03 10:19:53;;;;;;;6.65;4.10;;;24.00;99.90;;;;;;6077112;23;20098;-80
2021/07/03 10:22:21;;;;;;;7.68;4.00;;;23.60;99.90;;;;;;6211681;23;20070;-80
2021/07/03 10:24:49;;;;;;;7.15;4.30;;;23.60;99.90;;;;;;6222043;23;20473;-80
2021/07/03 10:27:17;;;;;;;5.72;3.95;;;24.10;99.90;;;;;;6226400;23;20035;-81
2021/07/03 10:29:44;;;;;;;7.43;4.55;;;24.40;99.90;;;;;;6232803;23;20077;-80
2021/07/03 10:32:23;;;;;;;9.68;4.90;;;24.60;99.90;;;;;;6224255;23;20038;-81
2021/07/03 10:34:49;;;;;;;9.40;4.80;;;24.80;99.90;;;;;;6198205;23;20444;-81
2021/07/03 10:37:34;;;;;;;6.97;4.35;;;24.90;99.90;;;;;;6211825;23;20092;-81
2021/07/03 10:40:01;;;;;;;11.05;4.40;;;25.10;99.90;;;;;;6206592;23;20013;-82
2021/07/03 10:42:33;;;;;;;10.13;4.57;;;24.80;99.90;;;;;;6221442;23;20013;-82
2021/07/03 10:45:25;;;;;;;8.88;5.15;;;24.90;99.90;;;;;;6213028;22;20012;-84
2021/07/03 10:47:52;;;;;;;13.55;4.90;;;25.30;99.90;;;;;;6278235;22;20060;-84
2021/07/03 10:50:20;;;;;;;11.60;4.93;;;25.40;99.90;;;;;;6285072;22;20323;-83
2021/07/03 10:52:46;;;;;;;9.32;4.45;;;25.50;99.90;;;;;;6310119;22;20427;-78
2021/07/03 10:55:12;;;;;;;9.70;5.25;;;25.50;99.90;;;;;;6319990;22;20082;-80
2021/07/03 10:57:42;;;;;;;11.13;5.53;;;25.50;99.90;;;;;;6346624;22;20010;-77
2021/07/03 11:00:11;;;;;;;10.40;4.45;;;25.60;99.90;;;;;;6347530;22;20041;-75
2021/07/03 11:02:37;;;;;;;7.35;4.70;;;25.80;99.90;;;;;;6308875;22;20434;-77
2021/07/03 11:05:14;;;;;;;7.90;4.70;;;25.80;99.90;;;;;;6310362;22;20011;-79
2021/07/03 11:07:41;;;;;;;10.30;4.13;;;25.70;99.90;;;;;;6337803;22;20543;-76
2021/07/03 11:10:09;;;;;;;8.25;4.20;;;25.60;99.90;;;;;;6347170;22;20021;-77
2021/07/03 11:12:50;;;;;;;10.10;4.95;;;25.60;99.90;;;;;;6308283;22;20431;-77
2021/07/03 11:15:23;;;;;;;7.88;4.68;;;25.50;99.90;;;;;;6347407;22;20022;-79
2021/07/03 11:17:50;;;;;;;10.43;4.72;;;25.80;99.90;;;;;;6307490;22;20017;-79
2021/07/03 11:20:29;;;;;;;7.78;4.85;;;26.00;99.90;;;;;;6283979;22;20093;-82
2021/07/03 11:22:57;;;;;;;11.82;5.18;;;25.70;99.90;;;;;;6308365;22;20018;-82
2021/07/03 11:25:31;;;;;;;6.93;4.65;;;25.80;99.90;;;;;;6297047;22;20015;-78
2021/07/03 11:28:19;;;;;;;9.25;4.82;;;26.10;99.90;;;;;;6305288;22;20023;-79
2021/07/03 11:30:55;;;;;;;10.35;4.82;;;26.50;99.90;;;;;;6289649;22;20090;-83
2021/07/03 11:33:21;;;;;;;7.43;4.30;;;26.60;99.90;;;;;;6253106;22;20011;-82
2021/07/03 11:35:50;;;;;;;6.97;4.68;;;26.80;99.90;;;;;;6278697;22;20026;-80
2021/07/03 11:38:22;;;;;;;6.80;4.35;;;27.00;99.90;;;;;;6278226;22;20038;-82
2021/07/03 11:40:51;;;;;;;9.50;4.88;;;27.10;99.90;;;;;;6306691;22;20007;-82
2021/07/03 11:43:17;;;;;;;8.18;3.90;;;27.30;99.90;;;;;;6252841;22;20012;-80
2021/07/03 11:45:44;;;;;;;7.75;3.80;;;27.20;99.90;;;;;;6289654;22;20007;-82
2021/07/03 11:48:13;;;;;;;7.28;3.83;;;27.40;99.90;;;;;;6279714;22;20027;-80
2021/07/03 11:50:42;;;;;;;6.63;3.83;;;27.60;99.90;;;;;;6306523;22;20011;-80
2021/07/03 11:53:10;;;;;;;5.63;3.40;;;27.50;98.60;;;;;;6279230;22;20090;-83
2021/07/03 11:55:47;;;;;;;6.03;3.70;;;27.70;99.90;;;;;;6318437;22;20007;-80
2021/07/03 11:58:29;;;;;;;6.97;3.90;;;27.80;97.60;;;;;;6289304;22;20058;-80
2021/07/03 12:00:57;;;;;;;6.32;3.65;;;27.90;96.90;;;;;;6289626;22;20018;-83
2021/07/03 12:03:29;;;;;;;5.13;3.78;;;27.90;98.50;;;;;;6277695;22;20015;-82
2021/07/03 12:05:57;;;;;;;6.20;3.78;;;27.90;98.00;;;;;;6278569;22;20351;-84
2021/07/03 12:08:32;;;;;;;7.25;3.75;;;28.00;97.60;;;;;;6279595;22;20038;-83
2021/07/03 12:11:09;;;;;;;6.40;3.50;;;28.20;97.10;;;;;;6291128;22;20085;-82
2021/07/03 12:13:52;;;;;;;7.97;3.63;;;28.50;98.50;;;;;;6308400;22;20084;-83
2021/07/03 12:16:20;;;;;;;5.50;3.57;;;28.50;97.40;;;;;;6318660;22;20111;-82
2021/07/03 12:18:56;;;;;;;8.02;3.60;;;27.90;96.10;;;;;;6308276;22;20007;-81
2021/07/03 12:21:29;;;;;;;5.30;3.05;;;27.30;95.30;;;;;;6315605;22;20011;-83
2021/07/03 12:24:05;;;;;;;4.53;3.20;;;26.80;95.90;;;;;;6280680;22;20043;-81
2021/07/03 12:26:41;;;;;;;6.05;3.47;;;26.60;96.20;;;;;;6338882;22;20014;-82
2021/07/03 12:29:10;;;;;;;6.03;3.03;;;27.10;97.30;;;;;;6312022;22;20026;-82
2021/07/03 12:31:48;;;;;;;5.20;2.95;;;27.60;98.80;;;;;;6311924;22;20434;-80
2021/07/03 12:34:27;;;;;;;3.05;2.38;;;28.10;97.40;;;;;;6338982;22;20020;-82
2021/07/03 12:37:05;;;;;;;4.15;2.47;;;28.00;93.90;;;;;;6312104;22;20025;-81
2021/07/03 12:39:32;;;;;;;4.55;2.53;;;28.40;91.30;;;;;;6311467;22;20015;-83
2021/07/03 12:42:04;;;;;;;6.93;2.70;;;28.70;93.90;;;;;;6311807;22;20025;-84
2021/07/03 12:44:49;;;;;;;3.42;2.60;;;29.10;95.80;;;;;;6285671;22;20461;-80